createdAt,value
2022-09-15T00:01:20.855Z,78.80
2022-09-15T00:03:49.159Z,78.70
2022-09-15T00:06:17.874Z,78.60
2022-09-15T00:08:46.112Z,78.60
2022-09-15T00:11:19.464Z,78.60
2022-09-15T00:13:47.946Z,78.70
2022-09-15T00:16:19.409Z,78.90
2022-09-15T00:18:48.146Z,78.60
2022-09-15T00:21:19.005Z,78.60
2022-09-15T00:23:47.505Z,78.80
2022-09-15T00:26:19.135Z,79.00
2022-09-15T00:28:48.615Z,79.10
2022-09-15T00:31:20.412Z,79.10
2022-09-15T00:33:49.630Z,79.20
2022-09-15T00:36:18.663Z,79.20
2022-09-15T00:38:47.121Z,79.30
2022-09-15T00:41:18.637Z,79.30
2022-09-15T00:43:51.002Z,79.20
2022-09-15T00:46:23.195Z,79.10
2022-09-15T00:48:59.146Z,79.10
2022-09-15T00:51:33.776Z,79.00
2022-09-15T00:54:05.607Z,78.90
2022-09-15T00:56:36.303Z,78.80
2022-09-15T00:59:08.033Z,78.70
2022-09-15T01:01:37.848Z,78.70
2022-09-15T01:04:06.072Z,78.60
2022-09-15T01:06:39.549Z,78.40
2022-09-15T01:09:13.452Z,79.00
2022-09-15T01:11:42.453Z,78.30
2022-09-15T01:14:10.623Z,78.30
2022-09-15T01:16:51.379Z,78.30
2022-09-15T01:19:54.080Z,78.60
2022-09-15T01:22:35.798Z,78.40
2022-09-15T01:25:09.603Z,78.50
2022-09-15T01:28:25.849Z,78.50
2022-09-15T01:31:01.799Z,78.70
2022-09-15T01:33:35.391Z,78.70
2022-09-15T01:36:11.709Z,78.80
2022-09-15T01:38:48.640Z,78.90
2022-09-15T01:41:19.418Z,79.00
2022-09-15T01:43:54.618Z,78.90
2022-09-15T01:46:27.756Z,79.10
2022-09-15T01:48:57.402Z,79.10
2022-09-15T01:51:26.848Z,79.00
2022-09-15T01:53:57.020Z,79.00
2022-09-15T01:56:25.245Z,79.00
2022-09-15T01:58:53.607Z,79.10
2022-09-15T02:01:32.001Z,79.20
2022-09-15T02:04:04.557Z,79.30
2022-09-15T02:06:39.373Z,79.30
2022-09-15T02:09:13.960Z,79.30
2022-09-15T02:11:49.118Z,79.40
2022-09-15T02:14:21.923Z,79.20
2022-09-15T02:16:55.266Z,79.20
2022-09-15T02:19:31.849Z,79.40
2022-09-15T02:22:07.817Z,79.60
2022-09-15T02:24:41.569Z,79.60
2022-09-15T02:27:15.526Z,79.50
2022-09-15T02:29:46.208Z,79.50
2022-09-15T02:32:18.531Z,79.40
2022-09-15T02:34:51.474Z,79.20
2022-09-15T02:37:21.904Z,79.20
2022-09-15T02:39:54.739Z,79.10
2022-09-15T02:42:26.954Z,79.00
2022-09-15T02:44:55.329Z,78.90
2022-09-15T02:47:25.635Z,78.80
2022-09-15T02:49:53.969Z,78.60
2022-09-15T02:52:22.658Z,78.40
2022-09-15T02:54:51.323Z,78.30
2022-09-15T02:57:19.853Z,78.20
2022-09-15T03:00:05.163Z,78.00
2022-09-15T03:02:34.779Z,78.00
2022-09-15T03:05:02.892Z,77.60
2022-09-15T03:07:31.997Z,77.60
2022-09-15T03:10:00.334Z,77.70
2022-09-15T03:12:28.397Z,77.70
2022-09-15T03:14:56.451Z,77.80
2022-09-15T03:17:25.262Z,77.90
2022-09-15T03:19:54.729Z,77.90
2022-09-15T03:22:22.835Z,77.90
2022-09-15T03:24:51.848Z,78.10
2022-09-15T03:27:20.154Z,78.00
2022-09-15T03:29:48.362Z,77.80
2022-09-15T03:32:16.434Z,77.60
2022-09-15T03:34:44.697Z,77.50
2022-09-15T03:37:14.395Z,77.40
2022-09-15T03:39:42.715Z,77.20
2022-09-15T03:42:10.873Z,77.10
2022-09-15T03:44:38.948Z,76.90
2022-09-15T03:47:07.666Z,76.80
2022-09-15T03:49:35.758Z,76.70
2022-09-15T03:52:04.109Z,76.60
2022-09-15T03:54:35.481Z,76.50
2022-09-15T03:57:03.771Z,76.40
2022-09-15T03:59:37.461Z,76.30
2022-09-15T04:02:05.668Z,76.20
2022-09-15T04:04:33.772Z,76.30
2022-09-15T04:07:01.931Z,76.30
2022-09-15T04:09:30.654Z,76.20
2022-09-15T04:12:00.109Z,76.20
2022-09-15T04:14:28.194Z,76.20
2022-09-15T04:16:56.425Z,76.20
2022-09-15T04:19:24.503Z,76.30
2022-09-15T04:21:52.719Z,76.20
2022-09-15T04:24:20.860Z,76.20
2022-09-15T04:26:49.009Z,76.10
2022-09-15T04:29:18.839Z,76.00
2022-09-15T04:31:47.204Z,76.00
2022-09-15T04:34:15.525Z,75.90
2022-09-15T04:36:43.662Z,76.00
2022-09-15T04:39:11.969Z,76.10
2022-09-15T04:41:40.252Z,76.10
2022-09-15T04:44:08.628Z,76.00
2022-09-15T04:46:38.389Z,75.90
2022-09-15T04:49:06.763Z,75.90
2022-09-15T04:51:34.992Z,76.00
2022-09-15T04:54:03.130Z,76.00
2022-09-15T04:56:31.388Z,76.10
2022-09-15T04:59:03.897Z,76.20
2022-09-15T05:01:34.373Z,76.00
2022-09-15T05:04:05.061Z,76.00
2022-09-15T05:06:34.868Z,76.00
2022-09-15T05:09:09.017Z,76.00
2022-09-15T05:11:38.682Z,75.90
2022-09-15T05:14:06.884Z,76.00
2022-09-15T05:16:35.222Z,76.00
2022-09-15T05:19:05.189Z,76.10
2022-09-15T05:21:33.741Z,76.30
2022-09-15T05:24:02.024Z,76.50
2022-09-15T05:26:31.050Z,76.60
2022-09-15T05:28:59.370Z,76.80
2022-09-15T05:31:30.651Z,76.70
2022-09-15T05:34:01.488Z,76.80
2022-09-15T05:36:31.386Z,76.80
2022-09-15T05:39:00.354Z,76.80
2022-09-15T05:41:29.724Z,76.80
2022-09-15T05:43:59.403Z,76.80
2022-09-15T05:46:28.060Z,76.80
2022-09-15T05:48:58.198Z,76.80
2022-09-15T05:51:26.689Z,76.80
2022-09-15T05:53:56.181Z,76.80
2022-09-15T05:56:24.319Z,76.90
2022-09-15T05:58:52.680Z,76.90
2022-09-15T06:01:22.935Z,76.90
2022-09-15T06:03:51.730Z,76.90
2022-09-15T06:06:20.340Z,76.90
2022-09-15T06:08:54.170Z,76.90
2022-09-15T06:11:27.981Z,76.90
2022-09-15T06:13:56.243Z,76.90
2022-09-15T06:16:26.145Z,76.80
2022-09-15T06:18:55.071Z,76.50
2022-09-15T06:21:24.744Z,76.40
2022-09-15T06:23:54.832Z,76.50
2022-09-15T06:26:24.072Z,76.30
2022-09-15T06:28:55.443Z,76.20
2022-09-15T06:31:24.588Z,75.90
2022-09-15T06:33:55.854Z,75.90
2022-09-15T06:36:26.261Z,75.90
2022-09-15T06:38:54.827Z,75.60
2022-09-15T06:41:23.407Z,75.30
2022-09-15T06:43:53.580Z,75.30
2022-09-15T06:46:23.937Z,75.20
2022-09-15T06:48:53.556Z,74.90
2022-09-15T06:51:25.109Z,75.00
2022-09-15T06:53:54.968Z,74.50
2022-09-15T06:56:24.487Z,73.90
2022-09-15T06:58:54.126Z,73.80
2022-09-15T07:01:25.182Z,73.50
2022-09-15T07:03:53.526Z,73.40
2022-09-15T07:06:22.144Z,73.20
2022-09-15T07:08:51.166Z,72.90
2022-09-15T07:11:19.795Z,72.70
2022-09-15T07:13:49.103Z,72.70
2022-09-15T07:16:19.583Z,72.90
2022-09-15T07:18:48.193Z,72.10
2022-09-15T07:21:18.410Z,72.20
2022-09-15T07:23:46.947Z,72.30
2022-09-15T07:26:17.393Z,72.00
2022-09-15T07:28:47.737Z,71.90
2022-09-15T07:31:20.222Z,71.90
2022-09-15T07:33:48.547Z,71.30
2022-09-15T07:36:17.404Z,71.20
2022-09-15T07:38:48.073Z,70.80
2022-09-15T07:41:17.922Z,70.80
2022-09-15T07:43:47.951Z,69.90
2022-09-15T07:46:16.616Z,69.60
2022-09-15T07:48:47.331Z,69.60
2022-09-15T07:51:16.347Z,68.80
2022-09-15T07:53:45.263Z,68.30
2022-09-15T07:56:13.985Z,67.90
2022-09-15T07:58:42.165Z,67.90
2022-09-15T08:01:13.139Z,67.90
2022-09-15T08:03:42.398Z,67.20
2022-09-15T08:06:12.677Z,67.10
2022-09-15T08:08:44.003Z,66.30
2022-09-15T08:11:18.503Z,66.40
2022-09-15T08:13:47.415Z,66.00
2022-09-15T08:16:17.345Z,65.90
2022-09-15T08:18:45.948Z,65.50
2022-09-15T08:21:17.827Z,65.00
2022-09-15T08:23:45.939Z,63.80
2022-09-15T08:26:14.750Z,64.40
2022-09-15T08:28:43.195Z,63.80
2022-09-15T08:31:13.953Z,63.90
2022-09-15T08:33:45.739Z,63.60
2022-09-15T08:36:16.207Z,63.20
2022-09-15T08:38:46.000Z,62.50
2022-09-15T08:41:19.421Z,62.10
2022-09-15T08:43:52.563Z,61.30
2022-09-15T08:46:26.944Z,60.90
2022-09-15T08:49:03.230Z,60.50
2022-09-15T08:51:38.190Z,60.50
2022-09-15T08:54:12.602Z,60.40
2022-09-15T08:56:44.178Z,59.80
2022-09-15T08:59:16.551Z,59.90
2022-09-15T09:02:00.777Z,59.60
2022-09-15T09:04:48.045Z,59.00
2022-09-15T09:07:32.751Z,58.80
2022-09-15T09:10:08.430Z,58.40
2022-09-15T09:12:51.780Z,59.00
2022-09-15T09:15:27.976Z,58.50
2022-09-15T09:18:20.100Z,61.40
2022-09-15T09:21:04.350Z,59.00
2022-09-15T09:23:35.297Z,58.90
2022-09-15T09:26:05.504Z,59.00
2022-09-15T09:28:41.205Z,59.10
2022-09-15T09:31:17.232Z,58.30
2022-09-15T09:33:51.932Z,57.90
2022-09-15T09:36:20.809Z,58.00
2022-09-15T09:38:51.335Z,58.30
2022-09-15T09:41:22.277Z,57.70
2022-09-15T09:43:51.218Z,57.80
2022-09-15T09:46:21.231Z,57.50
2022-09-15T09:48:53.811Z,57.40
2022-09-15T09:51:33.294Z,57.30
2022-09-15T09:54:16.163Z,56.90
2022-09-15T09:56:44.999Z,56.90
2022-09-15T09:59:35.377Z,57.50
2022-09-15T10:02:15.711Z,56.50
2022-09-15T10:04:45.101Z,56.40
2022-09-15T10:07:14.753Z,56.80
2022-09-15T10:10:01.118Z,56.60
2022-09-15T10:12:33.186Z,55.90
2022-09-15T10:15:03.463Z,57.20
2022-09-15T10:17:42.783Z,56.80
2022-09-15T10:20:28.264Z,56.20
2022-09-15T10:23:04.363Z,56.20
2022-09-15T10:26:01.586Z,56.10
2022-09-15T10:28:29.993Z,56.90
2022-09-15T10:31:05.781Z,56.70
2022-09-15T10:33:36.027Z,56.00
2022-09-15T10:36:13.046Z,56.20
2022-09-15T10:38:44.977Z,55.80
2022-09-15T10:41:26.311Z,56.20
2022-09-15T10:44:26.059Z,55.60
2022-09-15T10:47:04.226Z,55.00
2022-09-15T10:49:49.289Z,54.80
2022-09-15T10:52:30.330Z,53.80
2022-09-15T10:55:14.374Z,54.10
2022-09-15T10:58:01.702Z,53.60
2022-09-15T11:00:37.114Z,52.80
2022-09-15T11:03:28.324Z,52.70
2022-09-15T11:06:13.362Z,52.40
2022-09-15T11:08:54.175Z,51.90
2022-09-15T11:11:31.993Z,49.50
2022-09-15T11:14:17.848Z,48.90
2022-09-15T11:17:00.110Z,48.40
2022-09-15T11:19:41.068Z,48.50
2022-09-15T11:22:13.694Z,48.80
2022-09-15T11:24:47.990Z,48.80
2022-09-15T11:27:22.673Z,48.90
2022-09-15T11:30:03.830Z,49.10
2022-09-15T11:32:37.696Z,48.80
2022-09-15T11:35:32.625Z,49.70
2022-09-15T11:38:09.987Z,49.50
2022-09-15T11:40:48.384Z,50.20
2022-09-15T11:43:23.277Z,50.00
2022-09-15T11:45:57.875Z,50.20
2022-09-15T11:48:31.603Z,49.70
2022-09-15T11:51:03.220Z,49.70
2022-09-15T11:53:38.563Z,50.20
2022-09-15T11:56:19.936Z,50.20
2022-09-15T11:59:02.830Z,50.10
2022-09-15T12:01:42.434Z,49.70
2022-09-15T12:04:18.256Z,50.00
2022-09-15T12:06:52.407Z,49.90
2022-09-15T12:09:21.862Z,50.60
2022-09-15T12:11:53.832Z,50.40
2022-09-15T12:14:29.015Z,49.80
2022-09-15T12:16:59.914Z,48.70
2022-09-15T12:19:48.792Z,49.00
2022-09-15T12:22:23.495Z,48.20
2022-09-15T12:25:01.155Z,48.60
2022-09-15T12:27:29.691Z,48.40
2022-09-15T12:29:59.642Z,49.10
2022-09-15T12:32:30.265Z,48.90
2022-09-15T12:35:01.308Z,48.20
2022-09-15T12:37:37.859Z,47.80
2022-09-15T12:40:08.104Z,47.60
2022-09-15T12:42:37.541Z,48.20
2022-09-15T12:45:08.004Z,48.00
2022-09-15T12:47:41.429Z,47.60
2022-09-15T12:50:24.452Z,47.50
2022-09-15T12:52:54.754Z,47.40
2022-09-15T12:55:25.105Z,48.20
2022-09-15T12:57:55.635Z,48.40
2022-09-15T13:00:33.635Z,48.30
2022-09-15T13:03:04.737Z,48.10
2022-09-15T13:05:52.676Z,48.70
2022-09-15T13:08:46.923Z,48.80
2022-09-15T13:11:18.369Z,49.00
2022-09-15T13:13:52.599Z,49.00
2022-09-15T13:16:29.427Z,49.70
2022-09-15T13:19:14.943Z,49.10
2022-09-15T13:21:47.302Z,49.10
2022-09-15T13:24:21.328Z,48.90
2022-09-15T13:26:54.618Z,48.70
2022-09-15T13:29:24.397Z,48.60
2022-09-15T13:31:59.396Z,48.90
2022-09-15T13:35:06.071Z,48.40
2022-09-15T13:38:15.222Z,47.70
2022-09-15T13:41:08.901Z,47.40
2022-09-15T13:43:57.340Z,47.10
2022-09-15T13:46:39.311Z,47.20
2022-09-15T13:49:32.750Z,47.40
2022-09-15T13:52:19.024Z,47.50
2022-09-15T13:55:21.370Z,47.60
2022-09-15T14:00:48.195Z,48.30
2022-09-15T14:03:23.860Z,47.60
2022-09-15T14:05:52.634Z,48.00
2022-09-15T14:08:29.457Z,48.10
2022-09-15T14:11:01.141Z,47.30
2022-09-15T14:13:30.848Z,47.60
2022-09-15T14:16:02.139Z,47.90
2022-09-15T14:18:32.027Z,48.00
2022-09-15T14:21:02.107Z,48.20
2022-09-15T14:23:36.795Z,48.30
2022-09-15T14:26:05.685Z,47.90
2022-09-15T14:28:34.484Z,48.80
2022-09-15T14:31:03.557Z,48.50
2022-09-15T14:33:38.216Z,47.80
2022-09-15T14:36:16.815Z,47.80
2022-09-15T14:39:03.355Z,47.60
2022-09-15T14:41:33.980Z,48.00
2022-09-15T14:44:02.948Z,47.60
2022-09-15T14:46:38.918Z,47.50
2022-09-15T14:49:10.864Z,46.30
2022-09-15T14:51:39.795Z,46.00
2022-09-15T14:54:18.910Z,45.80
2022-09-15T14:56:51.075Z,45.50
2022-09-15T14:59:26.681Z,45.80
2022-09-15T15:02:03.001Z,45.90
2022-09-15T15:04:38.124Z,46.20
2022-09-15T15:07:15.547Z,46.50
2022-09-15T15:09:49.129Z,46.80
2022-09-15T15:12:25.902Z,46.90
2022-09-15T15:14:55.281Z,47.10
2022-09-15T15:17:35.085Z,47.40
2022-09-15T15:20:16.177Z,47.60
2022-09-15T15:22:45.364Z,47.80
2022-09-15T15:25:28.866Z,48.20
2022-09-15T15:27:58.210Z,48.20
2022-09-15T15:30:46.823Z,48.50
2022-09-15T15:33:25.451Z,48.60
2022-09-15T15:36:08.117Z,48.80
2022-09-15T15:38:38.032Z,48.80
2022-09-15T15:41:09.074Z,49.10
2022-09-15T15:43:37.586Z,49.20
2022-09-15T15:46:07.588Z,49.50
2022-09-15T15:48:38.569Z,49.50
2022-09-15T15:51:08.885Z,49.50
2022-09-15T15:53:37.188Z,49.40
2022-09-15T15:56:05.410Z,49.50
2022-09-15T15:58:34.932Z,49.70
2022-09-15T16:01:03.126Z,49.60
2022-09-15T16:03:31.288Z,49.70
2022-09-15T16:06:00.570Z,49.60
2022-09-15T16:08:31.665Z,49.70
2022-09-15T16:11:01.773Z,49.70
2022-09-15T16:13:30.358Z,49.90
2022-09-15T16:16:01.315Z,50.00
2022-09-15T16:18:29.898Z,50.10
2022-09-15T16:20:58.053Z,50.30
2022-09-15T16:23:26.374Z,50.50
2022-09-15T16:25:58.048Z,50.60
2022-09-15T16:28:26.261Z,50.60
2022-09-15T16:30:54.325Z,50.80
2022-09-15T16:33:24.931Z,51.00
2022-09-15T16:35:56.133Z,51.10
2022-09-15T16:38:28.155Z,51.10
2022-09-15T16:40:56.742Z,51.10
2022-09-15T16:43:24.844Z,51.30
2022-09-15T16:45:53.981Z,51.40
2022-09-15T16:48:23.483Z,51.40
2022-09-15T16:53:40.779Z,51.70
2022-09-15T16:56:11.416Z,51.60
2022-09-15T16:58:39.821Z,51.80
2022-09-15T17:01:09.000Z,51.90
2022-09-15T17:03:39.074Z,52.60
2022-09-15T17:06:07.755Z,52.00
2022-09-15T17:08:36.138Z,52.30
2022-09-15T17:11:06.072Z,52.30
2022-09-15T17:13:35.135Z,52.30
2022-09-15T17:16:05.091Z,52.50
2022-09-15T17:18:33.485Z,52.60
2022-09-15T17:21:02.936Z,52.70
2022-09-15T17:23:35.408Z,52.90
2022-09-15T17:26:05.583Z,53.00
2022-09-15T17:28:35.053Z,53.10
2022-09-15T17:31:05.269Z,53.20
2022-09-15T17:33:34.039Z,53.50
2022-09-15T17:36:03.837Z,53.50
2022-09-15T17:38:32.967Z,53.70
2022-09-15T17:41:01.205Z,53.70
2022-09-15T17:43:30.755Z,54.00
2022-09-15T17:45:59.384Z,54.10
2022-09-15T17:48:27.576Z,54.20
2022-09-15T17:50:55.755Z,54.30
2022-09-15T17:53:27.351Z,54.40
2022-09-15T17:55:56.549Z,54.60
2022-09-15T17:58:26.578Z,54.70
2022-09-15T18:00:55.648Z,54.70
2022-09-15T18:03:27.678Z,54.90
2022-09-15T18:05:56.736Z,54.90
2022-09-15T18:08:26.909Z,54.90
2022-09-15T18:10:55.314Z,54.90
2022-09-15T18:13:26.899Z,54.90
2022-09-15T18:15:55.626Z,54.90
2022-09-15T18:18:25.647Z,55.00
2022-09-15T18:20:56.738Z,55.10
2022-09-15T18:23:28.402Z,54.90
2022-09-15T18:25:56.729Z,55.00
2022-09-15T18:28:24.798Z,55.00
2022-09-15T18:30:53.081Z,55.10
2022-09-15T18:33:23.083Z,55.20
2022-09-15T18:35:53.626Z,55.00
2022-09-15T18:38:22.428Z,55.10
2022-09-15T18:40:55.283Z,55.00
2022-09-15T18:43:25.100Z,54.70
2022-09-15T18:45:55.120Z,54.60
2022-09-15T18:48:23.683Z,54.50
2022-09-15T18:50:53.107Z,54.30
2022-09-15T18:53:21.258Z,54.20
2022-09-15T18:55:49.358Z,54.10
2022-09-15T18:58:19.335Z,54.00
2022-09-15T19:00:48.372Z,53.60
2022-09-15T19:03:16.458Z,53.60
2022-09-15T19:05:45.776Z,53.60
2022-09-15T19:08:15.209Z,53.50
2022-09-15T19:10:44.241Z,53.40
2022-09-15T19:13:14.178Z,53.40
2022-09-15T19:15:44.601Z,53.40
2022-09-15T19:18:13.050Z,53.30
2022-09-15T19:20:41.792Z,53.30
2022-09-15T19:23:10.688Z,53.30
2022-09-15T19:25:41.426Z,53.20
2022-09-15T19:28:09.911Z,53.20
2022-09-15T19:30:38.064Z,53.20
2022-09-15T19:33:07.541Z,53.10
2022-09-15T19:35:35.731Z,53.10
2022-09-15T19:38:03.795Z,53.20
2022-09-15T19:40:32.090Z,53.10
2022-09-15T19:43:00.251Z,53.10
2022-09-15T19:45:28.341Z,53.10
2022-09-15T19:47:57.088Z,53.20
2022-09-15T19:50:26.560Z,53.00
2022-09-15T19:52:59.435Z,53.10
2022-09-15T19:55:28.797Z,53.20
2022-09-15T19:57:56.971Z,53.20
2022-09-15T20:00:25.199Z,53.20
2022-09-15T20:02:54.528Z,53.20
2022-09-15T20:05:22.809Z,53.30
2022-09-15T20:07:53.312Z,53.40
2022-09-15T20:10:21.506Z,53.40
2022-09-15T20:12:49.563Z,53.60
2022-09-15T20:15:23.330Z,53.60
2022-09-15T20:17:51.623Z,54.00
2022-09-15T20:20:19.812Z,53.80
2022-09-15T20:22:47.913Z,53.80
2022-09-15T20:25:17.551Z,53.80
2022-09-15T20:27:47.604Z,53.90
2022-09-15T20:30:15.706Z,54.00
2022-09-15T20:32:43.800Z,54.10
2022-09-15T20:35:11.920Z,54.10
2022-09-15T20:37:40.858Z,54.20
2022-09-15T20:40:10.359Z,54.30
2022-09-15T20:42:40.399Z,54.40
2022-09-15T20:45:09.571Z,54.60
2022-09-15T20:47:37.659Z,54.60
2022-09-15T20:50:06.490Z,54.70
2022-09-15T20:52:38.192Z,54.90
2022-09-15T20:55:07.163Z,55.00
2022-09-15T20:57:35.461Z,55.00
2022-09-15T21:00:08.933Z,55.10
2022-09-15T21:02:37.071Z,55.30
2022-09-15T21:05:05.658Z,55.20
2022-09-15T21:07:34.385Z,55.40
2022-09-15T21:10:02.510Z,55.50
2022-09-15T21:12:30.640Z,55.60
2022-09-15T21:14:58.744Z,55.70
2022-09-15T21:17:28.947Z,55.80
2022-09-15T21:19:57.071Z,56.00
2022-09-15T21:22:25.228Z,56.10
2022-09-15T21:24:53.350Z,56.20
2022-09-15T21:27:30.647Z,56.30
2022-09-15T21:29:59.171Z,56.30
2022-09-15T21:32:29.845Z,56.50
2022-09-15T21:34:57.958Z,56.60
2022-09-15T21:37:28.275Z,56.60
2022-09-15T21:39:56.947Z,56.80
2022-09-15T21:42:25.224Z,56.80
2022-09-15T21:44:53.833Z,56.80
2022-09-15T21:47:22.492Z,56.80
2022-09-15T21:49:52.319Z,56.90
2022-09-15T21:52:23.191Z,57.10
2022-09-15T21:54:51.956Z,57.20
2022-09-15T21:57:20.040Z,57.20
2022-09-15T21:59:48.123Z,57.30
2022-09-15T22:02:17.125Z,57.50
2022-09-15T22:04:45.539Z,57.60
2022-09-15T22:07:19.466Z,57.70
2022-09-15T22:09:48.360Z,57.80
2022-09-15T22:12:16.479Z,57.90
2022-09-15T22:14:44.624Z,57.90
2022-09-15T22:17:12.916Z,58.00
2022-09-15T22:19:41.038Z,58.00
2022-09-15T22:22:09.210Z,58.10
2022-09-15T22:24:38.860Z,58.20
2022-09-15T22:27:07.086Z,58.40
2022-09-15T22:29:35.206Z,58.30
2022-09-15T22:32:03.754Z,58.50
2022-09-15T22:34:31.830Z,58.60
2022-09-15T22:36:59.912Z,58.70
2022-09-15T22:39:50.231Z,58.70
2022-09-15T22:42:17.627Z,58.70
2022-09-15T22:44:45.693Z,58.90
2022-09-15T22:47:13.754Z,58.90
2022-09-15T22:49:41.848Z,59.10
2022-09-15T22:52:10.815Z,59.70
2022-09-15T22:54:38.894Z,59.20
2022-09-15T22:57:07.226Z,59.30
2022-09-15T22:59:36.751Z,59.40
2022-09-15T23:02:05.003Z,59.50
2022-09-15T23:04:33.077Z,59.50
2022-09-15T23:07:01.233Z,59.60
2022-09-15T23:09:29.626Z,59.70
2022-09-15T23:11:57.785Z,59.90
2022-09-15T23:14:26.007Z,60.00
2022-09-15T23:16:55.672Z,60.00
2022-09-15T23:19:23.731Z,60.00
2022-09-15T23:21:52.239Z,60.00
2022-09-15T23:24:20.515Z,60.00
2022-09-15T23:26:48.827Z,60.30
2022-09-15T23:29:17.017Z,60.20
2022-09-15T23:31:45.164Z,60.20
2022-09-15T23:34:14.641Z,60.30
2022-09-15T23:36:42.821Z,60.50
2022-09-15T23:39:11.157Z,60.40
2022-09-15T23:41:40.664Z,60.40
2022-09-15T23:44:08.970Z,60.40
2022-09-15T23:46:37.144Z,60.60
2022-09-15T23:49:05.567Z,60.40
2022-09-15T23:51:35.834Z,60.50
2022-09-15T23:54:04.745Z,60.70
2022-09-15T23:56:33.821Z,60.70
2022-09-15T23:59:01.983Z,60.80
